sensor_id;sensor_type;location;lat;lon;timestamp;temperature;humidity
41060;DHT22;26811;53.160;8.202;2023-04-10T00:03:09;7.30;99.90
41060;DHT22;26811;53.160;8.202;2023-04-10T00:08:09;7.20;99.90
41060;DHT22;26811;53.160;8.202;2023-04-10T00:13:10;7.20;99.90
41060;DHT22;26811;53.160;8.202;2023-04-10T00:18:11;7.10;99.90
41060;DHT22;26811;53.160;8.202;2023-04-10T00:23:11;7.00;99.90
41060;DHT22;26811;53.160;8.202;2023-04-10T00:28:12;6.90;99.90
41060;DHT22;26811;53.160;8.202;2023-04-10T00:33:13;6.90;99.90
41060;DHT22;26811;53.160;8.202;2023-04-10T00:38:14;6.80;99.90
41060;DHT22;26811;53.160;8.202;2023-04-10T00:43:16;6.80;99.90
41060;DHT22;26811;53.160;8.202;2023-04-10T00:48:18;6.80;99.90
41060;DHT22;26811;53.160;8.202;2023-04-10T00:53:19;6.80;99.90
41060;DHT22;26811;53.160;8.202;2023-04-10T00:58:20;6.90;99.90
41060;DHT22;26811;53.160;8.202;2023-04-10T01:03:21;7.00;99.90
41060;DHT22;26811;53.160;8.202;2023-04-10T01:08:46;7.10;99.90
41060;DHT22;26811;53.160;8.202;2023-04-10T01:14:15;7.10;99.90
41060;DHT22;26811;53.160;8.202;2023-04-10T01:30:24;7.20;99.90
41060;DHT22;26811;53.160;8.202;2023-04-10T01:35:27;7.20;99.90
41060;DHT22;26811;53.160;8.202;2023-04-10T01:40:30;7.10;99.90
41060;DHT22;26811;53.160;8.202;2023-04-10T01:45:32;7.10;99.90
41060;DHT22;26811;53.160;8.202;2023-04-10T01:50:33;7.00;99.90
41060;DHT22;26811;53.160;8.202;2023-04-10T01:55:36;6.90;99.90
41060;DHT22;26811;53.160;8.202;2023-04-10T02:00:38;6.80;99.90
41060;DHT22;26811;53.160;8.202;2023-04-10T02:11:24;6.60;99.90
41060;DHT22;26811;53.160;8.202;2023-04-10T02:16:29;6.60;99.90
41060;DHT22;26811;53.160;8.202;2023-04-10T02:21:34;6.50;99.90
41060;DHT22;26811;53.160;8.202;2023-04-10T02:26:50;6.50;99.90
41060;DHT22;26811;53.160;8.202;2023-04-10T02:31:50;6.40;99.90
41060;DHT22;26811;53.160;8.202;2023-04-10T02:36:51;6.50;99.90
41060;DHT22;26811;53.160;8.202;2023-04-10T02:41:52;6.40;99.90
41060;DHT22;26811;53.160;8.202;2023-04-10T02:46:52;6.40;99.90
41060;DHT22;26811;53.160;8.202;2023-04-10T02:51:53;6.30;99.90
41060;DHT22;26811;53.160;8.202;2023-04-10T02:56:54;6.30;99.90
41060;DHT22;26811;53.160;8.202;2023-04-10T03:01:55;6.20;99.90
41060;DHT22;26811;53.160;8.202;2023-04-10T03:06:56;6.20;99.90
41060;DHT22;26811;53.160;8.202;2023-04-10T03:11:56;6.20;99.90
41060;DHT22;26811;53.160;8.202;2023-04-10T03:16:57;6.20;99.90
41060;DHT22;26811;53.160;8.202;2023-04-10T03:21:57;6.10;99.90
41060;DHT22;26811;53.160;8.202;2023-04-10T03:26:58;6.10;99.90
41060;DHT22;26811;53.160;8.202;2023-04-10T03:31:58;6.20;99.90
41060;DHT22;26811;53.160;8.202;2023-04-10T03:36:59;6.20;99.90
41060;DHT22;26811;53.160;8.202;2023-04-10T03:41:59;6.20;99.90
41060;DHT22;26811;53.160;8.202;2023-04-10T03:47:00;6.20;99.90
41060;DHT22;26811;53.160;8.202;2023-04-10T03:52:01;6.20;99.90
41060;DHT22;26811;53.160;8.202;2023-04-10T03:57:01;6.10;99.90
41060;DHT22;26811;53.160;8.202;2023-04-10T04:02:02;6.10;99.90
41060;DHT22;26811;53.160;8.202;2023-04-10T04:07:03;6.10;99.90
41060;DHT22;26811;53.160;8.202;2023-04-10T04:12:03;6.20;99.90
41060;DHT22;26811;53.160;8.202;2023-04-10T04:17:04;6.10;99.90
41060;DHT22;26811;53.160;8.202;2023-04-10T04:22:04;6.10;99.90
41060;DHT22;26811;53.160;8.202;2023-04-10T04:27:06;6.10;99.90
41060;DHT22;26811;53.160;8.202;2023-04-10T04:32:07;6.20;99.90
41060;DHT22;26811;53.160;8.202;2023-04-10T04:37:07;6.30;99.90
41060;DHT22;26811;53.160;8.202;2023-04-10T04:42:08;6.30;99.90
41060;DHT22;26811;53.160;8.202;2023-04-10T04:47:08;6.30;99.90
41060;DHT22;26811;53.160;8.202;2023-04-10T04:52:09;6.40;99.90
41060;DHT22;26811;53.160;8.202;2023-04-10T04:57:10;6.50;99.90
41060;DHT22;26811;53.160;8.202;2023-04-10T05:02:10;6.50;99.90
41060;DHT22;26811;53.160;8.202;2023-04-10T05:07:11;6.60;99.90
41060;DHT22;26811;53.160;8.202;2023-04-10T05:12:11;6.70;99.90
41060;DHT22;26811;53.160;8.202;2023-04-10T05:17:12;6.80;99.90
41060;DHT22;26811;53.160;8.202;2023-04-10T05:22:14;6.80;99.90
41060;DHT22;26811;53.160;8.202;2023-04-10T05:27:16;6.80;99.90
41060;DHT22;26811;53.160;8.202;2023-04-10T05:32:16;6.90;99.90
41060;DHT22;26811;53.160;8.202;2023-04-10T05:37:17;7.10;99.90
41060;DHT22;26811;53.160;8.202;2023-04-10T05:42:17;7.40;99.90
41060;DHT22;26811;53.160;8.202;2023-04-10T05:47:18;7.70;99.90
41060;DHT22;26811;53.160;8.202;2023-04-10T05:52:18;8.00;99.90
41060;DHT22;26811;53.160;8.202;2023-04-10T05:57:19;8.30;99.90
41060;DHT22;26811;53.160;8.202;2023-04-10T06:02:19;8.70;99.90
41060;DHT22;26811;53.160;8.202;2023-04-10T06:07:20;9.00;99.90
41060;DHT22;26811;53.160;8.202;2023-04-10T06:12:21;9.30;99.90
41060;DHT22;26811;53.160;8.202;2023-04-10T06:17:22;9.60;99.90
41060;DHT22;26811;53.160;8.202;2023-04-10T06:22:25;9.80;99.90
41060;DHT22;26811;53.160;8.202;2023-04-10T06:27:27;10.00;99.90
41060;DHT22;26811;53.160;8.202;2023-04-10T06:32:28;10.30;99.90
41060;DHT22;26811;53.160;8.202;2023-04-10T06:37:29;10.60;99.90
41060;DHT22;26811;53.160;8.202;2023-04-10T06:42:33;11.00;99.90
41060;DHT22;26811;53.160;8.202;2023-04-10T06:47:34;11.40;99.90
41060;DHT22;26811;53.160;8.202;2023-04-10T06:52:34;12.00;99.90
41060;DHT22;26811;53.160;8.202;2023-04-10T06:57:35;12.90;99.90
41060;DHT22;26811;53.160;8.202;2023-04-10T07:02:35;14.20;98.60
41060;DHT22;26811;53.160;8.202;2023-04-10T07:07:36;14.90;96.10
41060;DHT22;26811;53.160;8.202;2023-04-10T07:12:38;15.30;95.00
41060;DHT22;26811;53.160;8.202;2023-04-10T07:17:38;16.50;92.60
41060;DHT22;26811;53.160;8.202;2023-04-10T07:22:39;17.60;90.30
41060;DHT22;26811;53.160;8.202;2023-04-10T07:27:39;18.30;87.80
41060;DHT22;26811;53.160;8.202;2023-04-10T07:32:40;19.30;82.80
41060;DHT22;26811;53.160;8.202;2023-04-10T07:37:41;19.60;80.70
41060;DHT22;26811;53.160;8.202;2023-04-10T07:42:43;20.00;79.20
41060;DHT22;26811;53.160;8.202;2023-04-10T07:47:43;20.30;76.50
41060;DHT22;26811;53.160;8.202;2023-04-10T07:52:44;20.40;76.60
41060;DHT22;26811;53.160;8.202;2023-04-10T07:57:45;20.20;75.20
41060;DHT22;26811;53.160;8.202;2023-04-10T08:02:45;20.70;74.80
41060;DHT22;26811;53.160;8.202;2023-04-10T08:07:46;21.50;72.00
41060;DHT22;26811;53.160;8.202;2023-04-10T08:12:46;21.50;71.60
41060;DHT22;26811;53.160;8.202;2023-04-10T08:17:47;20.30;72.30
41060;DHT22;26811;53.160;8.202;2023-04-10T08:22:48;20.10;74.20
41060;DHT22;26811;53.160;8.202;2023-04-10T08:27:48;20.30;73.00
41060;DHT22;26811;53.160;8.202;2023-04-10T08:32:49;20.40;72.50
41060;DHT22;26811;53.160;8.202;2023-04-10T08:37:49;20.60;72.70
41060;DHT22;26811;53.160;8.202;2023-04-10T08:42:50;20.30;71.30
41060;DHT22;26811;53.160;8.202;2023-04-10T08:47:51;19.20;73.90
41060;DHT22;26811;53.160;8.202;2023-04-10T08:52:55;18.60;74.30
41060;DHT22;26811;53.160;8.202;2023-04-10T08:57:59;18.40;75.70
41060;DHT22;26811;53.160;8.202;2023-04-10T09:03:00;18.90;74.90
41060;DHT22;26811;53.160;8.202;2023-04-10T09:08:05;19.30;74.20
41060;DHT22;26811;53.160;8.202;2023-04-10T09:13:06;19.60;73.10
41060;DHT22;26811;53.160;8.202;2023-04-10T09:18:06;19.40;70.80
41060;DHT22;26811;53.160;8.202;2023-04-10T09:23:20;19.30;71.60
41060;DHT22;26811;53.160;8.202;2023-04-10T09:28:21;19.40;71.30
41060;DHT22;26811;53.160;8.202;2023-04-10T09:38:22;19.30;70.40
41060;DHT22;26811;53.160;8.202;2023-04-10T09:43:24;19.30;69.70
41060;DHT22;26811;53.160;8.202;2023-04-10T09:48:26;19.20;70.50
41060;DHT22;26811;53.160;8.202;2023-04-10T09:53:26;18.90;68.60
41060;DHT22;26811;53.160;8.202;2023-04-10T09:58:27;18.70;70.30
41060;DHT22;26811;53.160;8.202;2023-04-10T10:03:28;19.00;70.10
41060;DHT22;26811;53.160;8.202;2023-04-10T10:08:31;19.50;69.00
41060;DHT22;26811;53.160;8.202;2023-04-10T10:18:46;18.60;70.80
41060;DHT22;26811;53.160;8.202;2023-04-10T10:23:50;18.40;71.90
41060;DHT22;26811;53.160;8.202;2023-04-10T10:28:55;18.70;70.50
41060;DHT22;26811;53.160;8.202;2023-04-10T10:33:56;18.70;69.90
41060;DHT22;26811;53.160;8.202;2023-04-10T10:44:42;18.40;69.50
41060;DHT22;26811;53.160;8.202;2023-04-10T10:54:54;18.30;71.30
41060;DHT22;26811;53.160;8.202;2023-04-10T10:59:55;18.60;69.50
41060;DHT22;26811;53.160;8.202;2023-04-10T11:04:55;18.50;70.60
41060;DHT22;26811;53.160;8.202;2023-04-10T11:09:56;18.60;70.10
41060;DHT22;26811;53.160;8.202;2023-04-10T11:15:01;18.50;69.60
41060;DHT22;26811;53.160;8.202;2023-04-10T11:20:02;18.30;70.80
41060;DHT22;26811;53.160;8.202;2023-04-10T11:25:03;18.50;70.30
41060;DHT22;26811;53.160;8.202;2023-04-10T11:30:28;18.50;70.20
41060;DHT22;26811;53.160;8.202;2023-04-10T11:35:30;18.30;70.60
41060;DHT22;26811;53.160;8.202;2023-04-10T11:40:31;18.40;70.50
41060;DHT22;26811;53.160;8.202;2023-04-10T11:45:31;18.70;70.40
41060;DHT22;26811;53.160;8.202;2023-04-10T11:50:32;18.80;69.50
41060;DHT22;26811;53.160;8.202;2023-04-10T11:55:36;18.80;68.20
41060;DHT22;26811;53.160;8.202;2023-04-10T12:00:37;19.00;68.80
41060;DHT22;26811;53.160;8.202;2023-04-10T12:05:45;19.10;68.50
41060;DHT22;26811;53.160;8.202;2023-04-10T12:10:46;19.20;67.30
41060;DHT22;26811;53.160;8.202;2023-04-10T12:15:47;19.20;68.00
41060;DHT22;26811;53.160;8.202;2023-04-10T12:20:47;19.60;66.80
41060;DHT22;26811;53.160;8.202;2023-04-10T12:25:51;19.30;67.00
41060;DHT22;26811;53.160;8.202;2023-04-10T12:30:52;18.90;66.90
41060;DHT22;26811;53.160;8.202;2023-04-10T12:35:53;18.90;67.20
41060;DHT22;26811;53.160;8.202;2023-04-10T12:40:58;19.00;66.40
41060;DHT22;26811;53.160;8.202;2023-04-10T12:45:58;19.00;66.00
41060;DHT22;26811;53.160;8.202;2023-04-10T12:50:59;19.10;65.50
41060;DHT22;26811;53.160;8.202;2023-04-10T12:56:04;19.40;65.80
41060;DHT22;26811;53.160;8.202;2023-04-10T13:01:07;19.50;65.80
41060;DHT22;26811;53.160;8.202;2023-04-10T13:06:12;19.80;65.80
41060;DHT22;26811;53.160;8.202;2023-04-10T13:11:12;19.80;65.30
41060;DHT22;26811;53.160;8.202;2023-04-10T13:16:13;19.50;65.00
41060;DHT22;26811;53.160;8.202;2023-04-10T13:21:13;19.50;65.10
41060;DHT22;26811;53.160;8.202;2023-04-10T13:26:18;19.30;65.80
41060;DHT22;26811;53.160;8.202;2023-04-10T13:31:18;19.10;65.50
41060;DHT22;26811;53.160;8.202;2023-04-10T13:36:19;18.80;66.20
41060;DHT22;26811;53.160;8.202;2023-04-10T13:41:19;18.70;66.80
41060;DHT22;26811;53.160;8.202;2023-04-10T13:46:20;18.70;66.50
41060;DHT22;26811;53.160;8.202;2023-04-10T13:51:20;18.70;66.70
41060;DHT22;26811;53.160;8.202;2023-04-10T13:56:21;19.00;66.80
41060;DHT22;26811;53.160;8.202;2023-04-10T14:01:22;19.20;66.20
41060;DHT22;26811;53.160;8.202;2023-04-10T14:06:22;19.60;65.30
41060;DHT22;26811;53.160;8.202;2023-04-10T14:11:23;19.70;64.40
41060;DHT22;26811;53.160;8.202;2023-04-10T14:16:23;19.30;64.60
41060;DHT22;26811;53.160;8.202;2023-04-10T14:21:24;19.20;64.90
41060;DHT22;26811;53.160;8.202;2023-04-10T14:26:25;19.30;64.90
41060;DHT22;26811;53.160;8.202;2023-04-10T14:31:26;19.20;63.70
41060;DHT22;26811;53.160;8.202;2023-04-10T14:36:26;18.80;64.60
41060;DHT22;26811;53.160;8.202;2023-04-10T14:41:27;18.60;64.30
41060;DHT22;26811;53.160;8.202;2023-04-10T14:46:32;18.50;64.40
41060;DHT22;26811;53.160;8.202;2023-04-10T14:51:32;18.50;64.90
41060;DHT22;26811;53.160;8.202;2023-04-10T14:56:33;18.60;64.90
41060;DHT22;26811;53.160;8.202;2023-04-10T15:01:33;18.50;64.90
41060;DHT22;26811;53.160;8.202;2023-04-10T15:06:35;18.30;65.00
41060;DHT22;26811;53.160;8.202;2023-04-10T15:11:35;18.20;65.60
41060;DHT22;26811;53.160;8.202;2023-04-10T15:16:36;18.20;65.40
41060;DHT22;26811;53.160;8.202;2023-04-10T15:21:36;18.20;65.70
41060;DHT22;26811;53.160;8.202;2023-04-10T15:26:42;18.20;65.70
41060;DHT22;26811;53.160;8.202;2023-04-10T15:31:43;18.20;66.00
41060;DHT22;26811;53.160;8.202;2023-04-10T15:36:44;18.00;66.90
41060;DHT22;26811;53.160;8.202;2023-04-10T15:41:44;17.90;66.80
41060;DHT22;26811;53.160;8.202;2023-04-10T15:46:47;17.90;67.10
41060;DHT22;26811;53.160;8.202;2023-04-10T15:51:47;17.80;67.10
41060;DHT22;26811;53.160;8.202;2023-04-10T15:56:48;17.70;67.60
41060;DHT22;26811;53.160;8.202;2023-04-10T16:01:49;17.70;67.80
41060;DHT22;26811;53.160;8.202;2023-04-10T16:06:50;17.70;67.60
41060;DHT22;26811;53.160;8.202;2023-04-10T16:11:50;17.70;68.00
41060;DHT22;26811;53.160;8.202;2023-04-10T16:16:51;17.60;68.10
41060;DHT22;26811;53.160;8.202;2023-04-10T16:21:52;17.50;69.10
41060;DHT22;26811;53.160;8.202;2023-04-10T16:26:52;17.50;68.80
41060;DHT22;26811;53.160;8.202;2023-04-10T16:31:53;17.30;69.00
41060;DHT22;26811;53.160;8.202;2023-04-10T16:36:53;17.30;68.90
41060;DHT22;26811;53.160;8.202;2023-04-10T16:41:54;17.20;69.60
41060;DHT22;26811;53.160;8.202;2023-04-10T16:46:55;17.00;69.50
41060;DHT22;26811;53.160;8.202;2023-04-10T16:51:56;16.90;69.70
41060;DHT22;26811;53.160;8.202;2023-04-10T16:56:56;16.90;69.80
41060;DHT22;26811;53.160;8.202;2023-04-10T17:01:57;16.90;69.90
41060;DHT22;26811;53.160;8.202;2023-04-10T17:06:58;16.80;70.90
41060;DHT22;26811;53.160;8.202;2023-04-10T17:11:58;16.80;71.60
41060;DHT22;26811;53.160;8.202;2023-04-10T17:17:00;16.60;70.40
41060;DHT22;26811;53.160;8.202;2023-04-10T17:22:00;16.50;70.00
41060;DHT22;26811;53.160;8.202;2023-04-10T17:27:01;16.40;70.70
41060;DHT22;26811;53.160;8.202;2023-04-10T17:32:01;16.30;71.10
41060;DHT22;26811;53.160;8.202;2023-04-10T17:37:02;16.30;71.40
41060;DHT22;26811;53.160;8.202;2023-04-10T17:42:02;16.30;71.10
41060;DHT22;26811;53.160;8.202;2023-04-10T17:47:03;16.30;71.60
41060;DHT22;26811;53.160;8.202;2023-04-10T17:52:04;16.20;71.50
41060;DHT22;26811;53.160;8.202;2023-04-10T17:57:05;16.10;71.60
41060;DHT22;26811;53.160;8.202;2023-04-10T18:02:05;16.20;71.60
41060;DHT22;26811;53.160;8.202;2023-04-10T18:07:06;16.20;71.50
41060;DHT22;26811;53.160;8.202;2023-04-10T18:12:06;16.30;71.80
41060;DHT22;26811;53.160;8.202;2023-04-10T18:17:07;16.30;71.80
41060;DHT22;26811;53.160;8.202;2023-04-10T18:22:08;16.20;72.10
41060;DHT22;26811;53.160;8.202;2023-04-10T18:27:08;16.10;72.40
41060;DHT22;26811;53.160;8.202;2023-04-10T18:32:09;16.20;71.90
41060;DHT22;26811;53.160;8.202;2023-04-10T18:37:09;16.20;74.70
41060;DHT22;26811;53.160;8.202;2023-04-10T18:42:10;16.10;74.20
41060;DHT22;26811;53.160;8.202;2023-04-10T18:47:10;16.00;74.60
41060;DHT22;26811;53.160;8.202;2023-04-10T18:52:11;15.90;76.40
41060;DHT22;26811;53.160;8.202;2023-04-10T18:57:12;15.80;77.50
41060;DHT22;26811;53.160;8.202;2023-04-10T19:02:13;15.70;80.40
41060;DHT22;26811;53.160;8.202;2023-04-10T19:07:13;15.40;82.30
41060;DHT22;26811;53.160;8.202;2023-04-10T19:12:14;15.20;84.80
41060;DHT22;26811;53.160;8.202;2023-04-10T19:17:14;15.00;88.70
41060;DHT22;26811;53.160;8.202;2023-04-10T19:22:15;14.50;91.50
41060;DHT22;26811;53.160;8.202;2023-04-10T19:27:16;14.10;94.80
41060;DHT22;26811;53.160;8.202;2023-04-10T19:32:16;13.70;99.90
41060;DHT22;26811;53.160;8.202;2023-04-10T19:37:21;13.30;99.90
41060;DHT22;26811;53.160;8.202;2023-04-10T19:42:21;12.90;99.90
41060;DHT22;26811;53.160;8.202;2023-04-10T19:47:22;12.60;99.90
41060;DHT22;26811;53.160;8.202;2023-04-10T19:52:22;12.40;99.90
41060;DHT22;26811;53.160;8.202;2023-04-10T19:57:23;12.20;99.90
41060;DHT22;26811;53.160;8.202;2023-04-10T20:02:24;12.10;99.90
41060;DHT22;26811;53.160;8.202;2023-04-10T20:07:25;12.00;99.90
41060;DHT22;26811;53.160;8.202;2023-04-10T20:12:25;11.80;99.90
41060;DHT22;26811;53.160;8.202;2023-04-10T20:17:27;11.60;99.90
41060;DHT22;26811;53.160;8.202;2023-04-10T20:22:28;11.40;99.90
41060;DHT22;26811;53.160;8.202;2023-04-10T20:27:29;11.30;99.90
41060;DHT22;26811;53.160;8.202;2023-04-10T20:32:29;11.10;99.90
41060;DHT22;26811;53.160;8.202;2023-04-10T20:37:30;11.00;99.90
41060;DHT22;26811;53.160;8.202;2023-04-10T20:42:30;10.90;99.90
41060;DHT22;26811;53.160;8.202;2023-04-10T20:47:31;10.90;99.90
41060;DHT22;26811;53.160;8.202;2023-04-10T20:52:31;10.80;99.90
41060;DHT22;26811;53.160;8.202;2023-04-10T20:57:32;10.80;99.90
41060;DHT22;26811;53.160;8.202;2023-04-10T21:02:33;10.80;99.90
41060;DHT22;26811;53.160;8.202;2023-04-10T21:07:33;10.80;99.90
41060;DHT22;26811;53.160;8.202;2023-04-10T21:12:34;10.80;99.90
41060;DHT22;26811;53.160;8.202;2023-04-10T21:17:35;10.80;99.90
41060;DHT22;26811;53.160;8.202;2023-04-10T21:22:35;10.70;99.90
41060;DHT22;26811;53.160;8.202;2023-04-10T21:27:36;10.70;99.90
41060;DHT22;26811;53.160;8.202;2023-04-10T21:32:36;10.70;99.90
41060;DHT22;26811;53.160;8.202;2023-04-10T21:37:37;10.70;99.90
41060;DHT22;26811;53.160;8.202;2023-04-10T21:42:38;10.70;99.90
41060;DHT22;26811;53.160;8.202;2023-04-10T21:47:38;10.70;99.90
41060;DHT22;26811;53.160;8.202;2023-04-10T21:52:39;10.70;99.90
41060;DHT22;26811;53.160;8.202;2023-04-10T21:57:39;10.60;99.90
41060;DHT22;26811;53.160;8.202;2023-04-10T22:02:40;10.60;99.90
41060;DHT22;26811;53.160;8.202;2023-04-10T22:07:40;10.60;99.90
41060;DHT22;26811;53.160;8.202;2023-04-10T22:12:41;10.60;99.90
41060;DHT22;26811;53.160;8.202;2023-04-10T22:17:41;10.60;99.90
41060;DHT22;26811;53.160;8.202;2023-04-10T22:22:42;10.50;99.90
41060;DHT22;26811;53.160;8.202;2023-04-10T22:27:42;10.50;99.90
41060;DHT22;26811;53.160;8.202;2023-04-10T22:32:43;10.50;99.90
41060;DHT22;26811;53.160;8.202;2023-04-10T22:37:43;10.50;99.90
41060;DHT22;26811;53.160;8.202;2023-04-10T22:42:44;10.50;99.90
41060;DHT22;26811;53.160;8.202;2023-04-10T22:47:45;10.50;99.90
41060;DHT22;26811;53.160;8.202;2023-04-10T22:52:45;10.40;99.90
41060;DHT22;26811;53.160;8.202;2023-04-10T22:57:46;10.40;99.90
41060;DHT22;26811;53.160;8.202;2023-04-10T23:02:48;10.40;99.90
41060;DHT22;26811;53.160;8.202;2023-04-10T23:07:48;10.40;99.90
41060;DHT22;26811;53.160;8.202;2023-04-10T23:12:49;10.30;99.90
41060;DHT22;26811;53.160;8.202;2023-04-10T23:17:49;10.40;99.90
41060;DHT22;26811;53.160;8.202;2023-04-10T23:22:50;10.30;99.90
41060;DHT22;26811;53.160;8.202;2023-04-10T23:27:50;10.30;99.90
41060;DHT22;26811;53.160;8.202;2023-04-10T23:32:51;10.30;99.90
41060;DHT22;26811;53.160;8.202;2023-04-10T23:37:52;10.20;99.90
41060;DHT22;26811;53.160;8.202;2023-04-10T23:42:52;10.20;99.90
41060;DHT22;26811;53.160;8.202;2023-04-10T23:47:53;10.20;99.90
41060;DHT22;26811;53.160;8.202;2023-04-10T23:52:53;10.20;99.90
41060;DHT22;26811;53.160;8.202;2023-04-10T23:57:54;10.20;99.90
